sensor_id;sensor_type;location;lat;lon;timestamp;P1;durP1;ratioP1;P2;durP2;ratioP2
27939;SDS011;15275;51.716;14.324;2023-05-10T00:00:27;6.18;;;4.43;;
27939;SDS011;15275;51.716;14.324;2023-05-10T00:02:53;7.55;;;4.47;;
27939;SDS011;15275;51.716;14.324;2023-05-10T00:05:18;6.97;;;4.53;;
27939;SDS011;15275;51.716;14.324;2023-05-10T00:07:44;6.03;;;4.35;;
27939;SDS011;15275;51.716;14.324;2023-05-10T00:10:10;5.53;;;4.03;;
27939;SDS011;15275;51.716;14.324;2023-05-10T00:12:37;8.50;;;4.72;;
27939;SDS011;15275;51.716;14.324;2023-05-10T00:15:03;5.30;;;4.47;;
27939;SDS011;15275;51.716;14.324;2023-05-10T00:17:30;5.82;;;4.53;;
27939;SDS011;15275;51.716;14.324;2023-05-10T00:19:56;6.85;;;4.20;;
27939;SDS011;15275;51.716;14.324;2023-05-10T00:22:22;8.50;;;4.50;;
27939;SDS011;15275;51.716;14.324;2023-05-10T00:24:48;6.68;;;4.28;;
27939;SDS011;15275;51.716;14.324;2023-05-10T00:27:14;8.20;;;5.18;;
27939;SDS011;15275;51.716;14.324;2023-05-10T00:29:40;6.40;;;4.55;;
27939;SDS011;15275;51.716;14.324;2023-05-10T00:32:06;6.05;;;4.47;;
27939;SDS011;15275;51.716;14.324;2023-05-10T00:34:31;6.95;;;4.50;;
27939;SDS011;15275;51.716;14.324;2023-05-10T00:36:58;5.75;;;4.75;;
27939;SDS011;15275;51.716;14.324;2023-05-10T00:39:24;6.95;;;4.82;;
27939;SDS011;15275;51.716;14.324;2023-05-10T00:41:51;7.05;;;4.60;;
27939;SDS011;15275;51.716;14.324;2023-05-10T00:44:17;6.50;;;5.13;;
27939;SDS011;15275;51.716;14.324;2023-05-10T00:46:43;5.43;;;4.55;;
27939;SDS011;15275;51.716;14.324;2023-05-10T00:49:10;7.85;;;4.95;;
27939;SDS011;15275;51.716;14.324;2023-05-10T00:51:36;10.57;;;4.20;;
27939;SDS011;15275;51.716;14.324;2023-05-10T00:54:02;6.82;;;4.50;;
27939;SDS011;15275;51.716;14.324;2023-05-10T00:56:28;7.32;;;5.47;;
27939;SDS011;15275;51.716;14.324;2023-05-10T00:58:55;9.23;;;5.47;;
27939;SDS011;15275;51.716;14.324;2023-05-10T01:01:21;8.13;;;4.72;;
27939;SDS011;15275;51.716;14.324;2023-05-10T01:03:47;7.55;;;4.95;;
27939;SDS011;15275;51.716;14.324;2023-05-10T01:06:13;7.82;;;5.32;;
27939;SDS011;15275;51.716;14.324;2023-05-10T01:08:39;11.50;;;5.72;;
27939;SDS011;15275;51.716;14.324;2023-05-10T01:11:06;7.60;;;4.72;;
27939;SDS011;15275;51.716;14.324;2023-05-10T01:16:06;7.45;;;4.95;;
27939;SDS011;15275;51.716;14.324;2023-05-10T01:18:38;7.80;;;5.40;;
27939;SDS011;15275;51.716;14.324;2023-05-10T01:33:29;11.70;;;4.85;;
27939;SDS011;15275;51.716;14.324;2023-05-10T01:38:49;8.82;;;5.80;;
27939;SDS011;15275;51.716;14.324;2023-05-10T01:44:16;7.45;;;5.25;;
27939;SDS011;15275;51.716;14.324;2023-05-10T01:47:07;7.72;;;5.13;;
27939;SDS011;15275;51.716;14.324;2023-05-10T01:49:39;8.02;;;6.00;;
27939;SDS011;15275;51.716;14.324;2023-05-10T01:52:16;10.27;;;6.00;;
27939;SDS011;15275;51.716;14.324;2023-05-10T01:54:48;8.60;;;5.55;;
27939;SDS011;15275;51.716;14.324;2023-05-10T01:57:20;7.97;;;5.93;;
27939;SDS011;15275;51.716;14.324;2023-05-10T01:59:51;7.25;;;5.35;;
27939;SDS011;15275;51.716;14.324;2023-05-10T02:02:20;8.43;;;5.55;;
27939;SDS011;15275;51.716;14.324;2023-05-10T02:04:47;12.73;;;6.28;;
27939;SDS011;15275;51.716;14.324;2023-05-10T02:07:14;8.65;;;6.18;;
27939;SDS011;15275;51.716;14.324;2023-05-10T02:09:42;9.48;;;6.20;;
27939;SDS011;15275;51.716;14.324;2023-05-10T02:12:13;8.68;;;6.35;;
27939;SDS011;15275;51.716;14.324;2023-05-10T02:14:40;8.75;;;6.13;;
27939;SDS011;15275;51.716;14.324;2023-05-10T02:17:08;11.27;;;5.93;;
27939;SDS011;15275;51.716;14.324;2023-05-10T02:19:36;9.40;;;5.57;;
27939;SDS011;15275;51.716;14.324;2023-05-10T02:22:04;11.23;;;6.10;;
27939;SDS011;15275;51.716;14.324;2023-05-10T02:24:30;9.50;;;6.20;;
27939;SDS011;15275;51.716;14.324;2023-05-10T02:26:58;7.65;;;5.65;;
27939;SDS011;15275;51.716;14.324;2023-05-10T02:29:25;9.88;;;6.22;;
27939;SDS011;15275;51.716;14.324;2023-05-10T02:31:54;9.25;;;5.70;;
27939;SDS011;15275;51.716;14.324;2023-05-10T02:34:25;9.90;;;5.40;;
27939;SDS011;15275;51.716;14.324;2023-05-10T02:36:52;10.13;;;6.18;;
27939;SDS011;15275;51.716;14.324;2023-05-10T02:39:20;7.70;;;5.30;;
27939;SDS011;15275;51.716;14.324;2023-05-10T02:41:48;10.38;;;5.70;;
27939;SDS011;15275;51.716;14.324;2023-05-10T02:44:17;7.68;;;5.40;;
27939;SDS011;15275;51.716;14.324;2023-05-10T02:46:45;7.35;;;4.90;;
27939;SDS011;15275;51.716;14.324;2023-05-10T02:49:11;9.07;;;5.15;;
27939;SDS011;15275;51.716;14.324;2023-05-10T02:51:40;7.68;;;5.20;;
27939;SDS011;15275;51.716;14.324;2023-05-10T02:54:15;8.60;;;5.15;;
27939;SDS011;15275;51.716;14.324;2023-05-10T02:56:53;10.45;;;6.03;;
27939;SDS011;15275;51.716;14.324;2023-05-10T02:59:24;8.10;;;5.07;;
27939;SDS011;15275;51.716;14.324;2023-05-10T03:01:50;7.00;;;5.30;;
27939;SDS011;15275;51.716;14.324;2023-05-10T03:04:16;6.63;;;5.07;;
27939;SDS011;15275;51.716;14.324;2023-05-10T03:06:41;9.05;;;5.45;;
27939;SDS011;15275;51.716;14.324;2023-05-10T03:09:08;11.27;;;5.38;;
27939;SDS011;15275;51.716;14.324;2023-05-10T03:12:02;9.00;;;5.32;;
27939;SDS011;15275;51.716;14.324;2023-05-10T03:17:30;9.82;;;5.90;;
27939;SDS011;15275;51.716;14.324;2023-05-10T03:20:35;8.07;;;4.90;;
27939;SDS011;15275;51.716;14.324;2023-05-10T03:23:12;8.57;;;5.10;;
27939;SDS011;15275;51.716;14.324;2023-05-10T03:28:18;6.45;;;4.35;;
27939;SDS011;15275;51.716;14.324;2023-05-10T03:30:46;7.00;;;4.18;;
27939;SDS011;15275;51.716;14.324;2023-05-10T03:33:12;8.77;;;5.10;;
27939;SDS011;15275;51.716;14.324;2023-05-10T03:35:39;9.13;;;4.82;;
27939;SDS011;15275;51.716;14.324;2023-05-10T03:38:05;7.78;;;4.95;;
27939;SDS011;15275;51.716;14.324;2023-05-10T03:40:30;6.85;;;4.65;;
27939;SDS011;15275;51.716;14.324;2023-05-10T03:43:00;7.78;;;5.15;;
27939;SDS011;15275;51.716;14.324;2023-05-10T03:45:26;7.40;;;4.50;;
27939;SDS011;15275;51.716;14.324;2023-05-10T03:47:52;7.50;;;4.90;;
27939;SDS011;15275;51.716;14.324;2023-05-10T03:50:18;8.65;;;5.32;;
27939;SDS011;15275;51.716;14.324;2023-05-10T03:52:45;6.45;;;4.47;;
27939;SDS011;15275;51.716;14.324;2023-05-10T03:55:11;7.10;;;4.80;;
27939;SDS011;15275;51.716;14.324;2023-05-10T03:57:37;7.55;;;5.18;;
27939;SDS011;15275;51.716;14.324;2023-05-10T04:00:03;7.85;;;4.85;;
27939;SDS011;15275;51.716;14.324;2023-05-10T04:02:30;6.15;;;4.60;;
27939;SDS011;15275;51.716;14.324;2023-05-10T04:04:56;6.80;;;4.75;;
27939;SDS011;15275;51.716;14.324;2023-05-10T04:07:22;8.32;;;4.57;;
27939;SDS011;15275;51.716;14.324;2023-05-10T04:09:48;6.63;;;4.25;;
27939;SDS011;15275;51.716;14.324;2023-05-10T04:12:14;7.50;;;4.68;;
27939;SDS011;15275;51.716;14.324;2023-05-10T04:14:39;5.35;;;4.22;;
27939;SDS011;15275;51.716;14.324;2023-05-10T04:17:05;8.45;;;4.57;;
27939;SDS011;15275;51.716;14.324;2023-05-10T04:19:31;7.28;;;4.70;;
27939;SDS011;15275;51.716;14.324;2023-05-10T04:21:58;6.70;;;4.63;;
27939;SDS011;15275;51.716;14.324;2023-05-10T04:24:24;6.50;;;4.45;;
27939;SDS011;15275;51.716;14.324;2023-05-10T04:26:50;6.15;;;4.28;;
27939;SDS011;15275;51.716;14.324;2023-05-10T04:29:16;4.45;;;3.47;;
27939;SDS011;15275;51.716;14.324;2023-05-10T04:31:42;6.65;;;4.03;;
27939;SDS011;15275;51.716;14.324;2023-05-10T04:34:08;6.57;;;4.63;;
27939;SDS011;15275;51.716;14.324;2023-05-10T04:36:33;8.07;;;4.18;;
27939;SDS011;15275;51.716;14.324;2023-05-10T04:39:01;13.98;;;4.72;;
27939;SDS011;15275;51.716;14.324;2023-05-10T04:41:28;5.85;;;4.03;;
27939;SDS011;15275;51.716;14.324;2023-05-10T04:43:54;8.07;;;4.32;;
27939;SDS011;15275;51.716;14.324;2023-05-10T04:46:20;7.05;;;4.03;;
27939;SDS011;15275;51.716;14.324;2023-05-10T04:48:46;8.60;;;3.63;;
27939;SDS011;15275;51.716;14.324;2023-05-10T04:51:12;7.97;;;4.50;;
27939;SDS011;15275;51.716;14.324;2023-05-10T04:53:38;6.38;;;4.20;;
27939;SDS011;15275;51.716;14.324;2023-05-10T04:56:04;5.32;;;4.00;;
27939;SDS011;15275;51.716;14.324;2023-05-10T04:58:30;5.15;;;4.28;;
27939;SDS011;15275;51.716;14.324;2023-05-10T05:00:56;6.55;;;3.33;;
27939;SDS011;15275;51.716;14.324;2023-05-10T05:03:22;5.78;;;3.65;;
27939;SDS011;15275;51.716;14.324;2023-05-10T05:05:48;7.80;;;3.83;;
27939;SDS011;15275;51.716;14.324;2023-05-10T05:08:14;5.40;;;3.42;;
27939;SDS011;15275;51.716;14.324;2023-05-10T05:10:39;5.18;;;3.67;;
27939;SDS011;15275;51.716;14.324;2023-05-10T05:13:05;6.13;;;3.63;;
27939;SDS011;15275;51.716;14.324;2023-05-10T05:15:31;4.72;;;3.30;;
27939;SDS011;15275;51.716;14.324;2023-05-10T05:17:57;4.95;;;3.78;;
27939;SDS011;15275;51.716;14.324;2023-05-10T05:20:23;6.25;;;3.50;;
27939;SDS011;15275;51.716;14.324;2023-05-10T05:22:49;5.00;;;3.92;;
27939;SDS011;15275;51.716;14.324;2023-05-10T05:25:15;5.45;;;3.35;;
27939;SDS011;15275;51.716;14.324;2023-05-10T05:27:41;4.75;;;3.08;;
27939;SDS011;15275;51.716;14.324;2023-05-10T05:30:07;6.10;;;3.10;;
27939;SDS011;15275;51.716;14.324;2023-05-10T05:32:33;5.22;;;3.47;;
27939;SDS011;15275;51.716;14.324;2023-05-10T05:34:59;5.03;;;3.05;;
27939;SDS011;15275;51.716;14.324;2023-05-10T05:37:25;4.10;;;2.70;;
27939;SDS011;15275;51.716;14.324;2023-05-10T05:39:51;5.57;;;2.72;;
27939;SDS011;15275;51.716;14.324;2023-05-10T05:42:17;5.25;;;3.60;;
27939;SDS011;15275;51.716;14.324;2023-05-10T05:44:43;5.50;;;3.47;;
27939;SDS011;15275;51.716;14.324;2023-05-10T05:47:10;4.05;;;2.90;;
27939;SDS011;15275;51.716;14.324;2023-05-10T05:49:36;5.75;;;3.45;;
27939;SDS011;15275;51.716;14.324;2023-05-10T05:52:02;5.63;;;3.03;;
27939;SDS011;15275;51.716;14.324;2023-05-10T05:54:29;4.70;;;2.72;;
27939;SDS011;15275;51.716;14.324;2023-05-10T05:56:56;6.10;;;3.50;;
27939;SDS011;15275;51.716;14.324;2023-05-10T05:59:24;4.50;;;3.25;;
27939;SDS011;15275;51.716;14.324;2023-05-10T06:01:50;3.60;;;2.70;;
27939;SDS011;15275;51.716;14.324;2023-05-10T06:04:16;4.60;;;3.33;;
27939;SDS011;15275;51.716;14.324;2023-05-10T06:06:42;5.15;;;2.80;;
27939;SDS011;15275;51.716;14.324;2023-05-10T06:09:08;4.63;;;2.72;;
27939;SDS011;15275;51.716;14.324;2023-05-10T06:11:35;4.30;;;2.70;;
27939;SDS011;15275;51.716;14.324;2023-05-10T06:14:01;4.07;;;2.88;;
27939;SDS011;15275;51.716;14.324;2023-05-10T06:16:33;3.42;;;2.50;;
27939;SDS011;15275;51.716;14.324;2023-05-10T06:18:59;3.42;;;2.33;;
27939;SDS011;15275;51.716;14.324;2023-05-10T06:21:25;3.20;;;2.50;;
27939;SDS011;15275;51.716;14.324;2023-05-10T06:23:51;4.20;;;2.55;;
27939;SDS011;15275;51.716;14.324;2023-05-10T06:26:17;2.40;;;2.10;;
27939;SDS011;15275;51.716;14.324;2023-05-10T06:28:42;3.40;;;2.30;;
27939;SDS011;15275;51.716;14.324;2023-05-10T06:31:08;4.32;;;2.75;;
27939;SDS011;15275;51.716;14.324;2023-05-10T06:33:36;3.70;;;2.30;;
27939;SDS011;15275;51.716;14.324;2023-05-10T06:36:02;5.43;;;2.35;;
27939;SDS011;15275;51.716;14.324;2023-05-10T06:38:28;8.52;;;3.72;;
27939;SDS011;15275;51.716;14.324;2023-05-10T06:40:54;12.80;;;7.95;;
27939;SDS011;15275;51.716;14.324;2023-05-10T06:43:20;11.98;;;7.40;;
27939;SDS011;15275;51.716;14.324;2023-05-10T06:45:45;16.85;;;8.35;;
27939;SDS011;15275;51.716;14.324;2023-05-10T06:48:12;21.58;;;12.38;;
27939;SDS011;15275;51.716;14.324;2023-05-10T06:50:38;11.82;;;7.53;;
27939;SDS011;15275;51.716;14.324;2023-05-10T06:53:04;24.88;;;14.38;;
27939;SDS011;15275;51.716;14.324;2023-05-10T06:55:30;11.38;;;7.57;;
27939;SDS011;15275;51.716;14.324;2023-05-10T06:57:56;13.18;;;7.60;;
27939;SDS011;15275;51.716;14.324;2023-05-10T07:00:22;10.68;;;4.32;;
27939;SDS011;15275;51.716;14.324;2023-05-10T07:02:48;5.70;;;3.30;;
27939;SDS011;15275;51.716;14.324;2023-05-10T07:05:13;2.65;;;2.25;;
27939;SDS011;15275;51.716;14.324;2023-05-10T07:07:40;7.55;;;2.70;;
27939;SDS011;15275;51.716;14.324;2023-05-10T07:10:07;7.68;;;3.05;;
27939;SDS011;15275;51.716;14.324;2023-05-10T07:12:33;3.40;;;2.53;;
27939;SDS011;15275;51.716;14.324;2023-05-10T07:14:59;3.03;;;2.00;;
27939;SDS011;15275;51.716;14.324;2023-05-10T07:17:25;3.15;;;2.58;;
27939;SDS011;15275;51.716;14.324;2023-05-10T07:19:51;6.97;;;2.50;;
27939;SDS011;15275;51.716;14.324;2023-05-10T07:22:17;6.53;;;2.55;;
27939;SDS011;15275;51.716;14.324;2023-05-10T07:24:43;4.95;;;1.85;;
27939;SDS011;15275;51.716;14.324;2023-05-10T07:27:09;5.72;;;2.55;;
27939;SDS011;15275;51.716;14.324;2023-05-10T07:29:35;3.35;;;1.95;;
27939;SDS011;15275;51.716;14.324;2023-05-10T07:32:02;5.00;;;2.40;;
27939;SDS011;15275;51.716;14.324;2023-05-10T07:34:28;4.70;;;2.03;;
27939;SDS011;15275;51.716;14.324;2023-05-10T07:36:55;5.70;;;2.10;;
27939;SDS011;15275;51.716;14.324;2023-05-10T07:39:23;3.95;;;2.65;;
27939;SDS011;15275;51.716;14.324;2023-05-10T07:41:49;3.20;;;2.15;;
27939;SDS011;15275;51.716;14.324;2023-05-10T07:44:15;3.25;;;1.88;;
27939;SDS011;15275;51.716;14.324;2023-05-10T07:46:43;3.97;;;2.13;;
27939;SDS011;15275;51.716;14.324;2023-05-10T07:49:09;3.67;;;2.10;;
27939;SDS011;15275;51.716;14.324;2023-05-10T07:51:35;3.08;;;1.67;;
27939;SDS011;15275;51.716;14.324;2023-05-10T07:54:01;3.33;;;2.05;;
27939;SDS011;15275;51.716;14.324;2023-05-10T07:56:28;3.00;;;1.70;;
27939;SDS011;15275;51.716;14.324;2023-05-10T07:59:01;4.03;;;2.13;;
27939;SDS011;15275;51.716;14.324;2023-05-10T08:01:32;3.80;;;2.50;;
27939;SDS011;15275;51.716;14.324;2023-05-10T08:04:00;3.40;;;1.80;;
27939;SDS011;15275;51.716;14.324;2023-05-10T08:06:26;3.00;;;2.05;;
27939;SDS011;15275;51.716;14.324;2023-05-10T08:08:54;2.97;;;1.92;;
27939;SDS011;15275;51.716;14.324;2023-05-10T08:11:21;5.25;;;1.90;;
27939;SDS011;15275;51.716;14.324;2023-05-10T08:13:47;2.97;;;2.08;;
27939;SDS011;15275;51.716;14.324;2023-05-10T08:16:15;6.90;;;2.10;;
27939;SDS011;15275;51.716;14.324;2023-05-10T08:18:42;1.88;;;1.50;;
27939;SDS011;15275;51.716;14.324;2023-05-10T08:21:10;3.58;;;2.10;;
27939;SDS011;15275;51.716;14.324;2023-05-10T08:23:39;4.45;;;2.25;;
27939;SDS011;15275;51.716;14.324;2023-05-10T08:26:05;3.97;;;2.25;;
27939;SDS011;15275;51.716;14.324;2023-05-10T08:28:31;3.45;;;1.85;;
27939;SDS011;15275;51.716;14.324;2023-05-10T08:30:57;9.73;;;2.05;;
27939;SDS011;15275;51.716;14.324;2023-05-10T08:33:23;2.25;;;1.77;;
27939;SDS011;15275;51.716;14.324;2023-05-10T08:35:49;3.80;;;1.77;;
27939;SDS011;15275;51.716;14.324;2023-05-10T08:38:15;8.23;;;2.15;;
27939;SDS011;15275;51.716;14.324;2023-05-10T08:40:41;9.45;;;1.80;;
27939;SDS011;15275;51.716;14.324;2023-05-10T08:43:09;7.22;;;2.20;;
27939;SDS011;15275;51.716;14.324;2023-05-10T08:45:40;4.82;;;1.92;;
27939;SDS011;15275;51.716;14.324;2023-05-10T08:48:09;9.95;;;1.83;;
27939;SDS011;15275;51.716;14.324;2023-05-10T08:50:36;2.38;;;1.67;;
27939;SDS011;15275;51.716;14.324;2023-05-10T08:53:05;3.22;;;1.73;;
27939;SDS011;15275;51.716;14.324;2023-05-10T08:55:35;4.88;;;2.08;;
27939;SDS011;15275;51.716;14.324;2023-05-10T08:58:03;3.92;;;1.83;;
27939;SDS011;15275;51.716;14.324;2023-05-10T09:00:31;3.78;;;1.95;;
27939;SDS011;15275;51.716;14.324;2023-05-10T09:02:57;6.55;;;1.88;;
27939;SDS011;15275;51.716;14.324;2023-05-10T09:05:24;5.88;;;2.15;;
27939;SDS011;15275;51.716;14.324;2023-05-10T09:07:50;4.97;;;2.05;;
27939;SDS011;15275;51.716;14.324;2023-05-10T09:10:16;4.00;;;2.20;;
27939;SDS011;15275;51.716;14.324;2023-05-10T09:12:42;8.40;;;2.33;;
27939;SDS011;15275;51.716;14.324;2023-05-10T09:15:10;4.18;;;2.28;;
27939;SDS011;15275;51.716;14.324;2023-05-10T09:17:39;1.60;;;1.50;;
27939;SDS011;15275;51.716;14.324;2023-05-10T09:20:06;6.00;;;1.98;;
27939;SDS011;15275;51.716;14.324;2023-05-10T09:22:35;6.00;;;2.08;;
27939;SDS011;15275;51.716;14.324;2023-05-10T09:25:06;6.28;;;1.88;;
27939;SDS011;15275;51.716;14.324;2023-05-10T09:27:34;5.95;;;1.98;;
27939;SDS011;15275;51.716;14.324;2023-05-10T09:30:01;2.75;;;1.92;;
27939;SDS011;15275;51.716;14.324;2023-05-10T09:32:46;4.65;;;1.70;;
27939;SDS011;15275;51.716;14.324;2023-05-10T09:35:14;5.10;;;2.20;;
27939;SDS011;15275;51.716;14.324;2023-05-10T09:37:43;5.18;;;2.00;;
27939;SDS011;15275;51.716;14.324;2023-05-10T09:40:15;7.03;;;1.98;;
27939;SDS011;15275;51.716;14.324;2023-05-10T09:42:58;3.42;;;1.63;;
27939;SDS011;15275;51.716;14.324;2023-05-10T09:45:27;2.25;;;1.58;;
27939;SDS011;15275;51.716;14.324;2023-05-10T09:47:55;4.30;;;2.00;;
27939;SDS011;15275;51.716;14.324;2023-05-10T09:50:22;3.28;;;1.80;;
27939;SDS011;15275;51.716;14.324;2023-05-10T09:52:50;4.43;;;1.77;;
27939;SDS011;15275;51.716;14.324;2023-05-10T09:55:22;2.30;;;1.60;;
27939;SDS011;15275;51.716;14.324;2023-05-10T09:58:09;2.35;;;1.77;;
27939;SDS011;15275;51.716;14.324;2023-05-10T10:00:39;4.60;;;2.03;;
27939;SDS011;15275;51.716;14.324;2023-05-10T10:03:14;2.55;;;1.60;;
27939;SDS011;15275;51.716;14.324;2023-05-10T10:05:42;2.30;;;1.80;;
27939;SDS011;15275;51.716;14.324;2023-05-10T10:08:09;2.35;;;1.73;;
27939;SDS011;15275;51.716;14.324;2023-05-10T10:10:36;9.07;;;2.28;;
27939;SDS011;15275;51.716;14.324;2023-05-10T10:13:05;2.83;;;1.98;;
27939;SDS011;15275;51.716;14.324;2023-05-10T10:15:32;1.80;;;1.40;;
27939;SDS011;15275;51.716;14.324;2023-05-10T10:17:59;5.55;;;2.10;;
27939;SDS011;15275;51.716;14.324;2023-05-10T10:20:26;5.43;;;1.65;;
27939;SDS011;15275;51.716;14.324;2023-05-10T10:22:53;2.75;;;1.83;;
27939;SDS011;15275;51.716;14.324;2023-05-10T10:25:19;3.97;;;1.83;;
27939;SDS011;15275;51.716;14.324;2023-05-10T10:36:05;6.88;;;2.05;;
27939;SDS011;15275;51.716;14.324;2023-05-10T10:41:34;7.03;;;2.05;;
27939;SDS011;15275;51.716;14.324;2023-05-10T10:49:48;8.18;;;1.90;;
27939;SDS011;15275;51.716;14.324;2023-05-10T10:52:21;2.72;;;1.70;;
27939;SDS011;15275;51.716;14.324;2023-05-10T10:55:21;4.30;;;2.00;;
27939;SDS011;15275;51.716;14.324;2023-05-10T11:00:26;2.17;;;1.80;;
27939;SDS011;15275;51.716;14.324;2023-05-10T11:18:44;4.80;;;2.10;;
27939;SDS011;15275;51.716;14.324;2023-05-10T11:21:27;4.43;;;1.75;;
27939;SDS011;15275;51.716;14.324;2023-05-10T11:23:58;2.85;;;1.65;;
27939;SDS011;15275;51.716;14.324;2023-05-10T11:26:35;2.17;;;1.48;;
27939;SDS011;15275;51.716;14.324;2023-05-10T11:29:01;2.60;;;1.63;;
27939;SDS011;15275;51.716;14.324;2023-05-10T11:31:29;6.80;;;1.90;;
27939;SDS011;15275;51.716;14.324;2023-05-10T11:33:56;2.30;;;1.50;;
27939;SDS011;15275;51.716;14.324;2023-05-10T11:36:32;2.75;;;1.70;;
27939;SDS011;15275;51.716;14.324;2023-05-10T11:39:00;1.98;;;1.50;;
27939;SDS011;15275;51.716;14.324;2023-05-10T11:41:28;4.60;;;1.73;;
27939;SDS011;15275;51.716;14.324;2023-05-10T11:43:55;2.90;;;1.70;;
27939;SDS011;15275;51.716;14.324;2023-05-10T11:46:26;4.43;;;1.83;;
27939;SDS011;15275;51.716;14.324;2023-05-10T11:48:55;2.05;;;1.80;;
27939;SDS011;15275;51.716;14.324;2023-05-10T11:51:26;3.70;;;1.70;;
27939;SDS011;15275;51.716;14.324;2023-05-10T11:53:52;5.20;;;1.70;;
27939;SDS011;15275;51.716;14.324;2023-05-10T11:56:20;7.60;;;1.88;;
27939;SDS011;15275;51.716;14.324;2023-05-10T11:58:52;3.42;;;1.80;;
27939;SDS011;15275;51.716;14.324;2023-05-10T12:01:22;3.10;;;1.70;;
27939;SDS011;15275;51.716;14.324;2023-05-10T12:03:54;2.65;;;1.50;;
27939;SDS011;15275;51.716;14.324;2023-05-10T12:06:36;2.60;;;1.77;;
27939;SDS011;15275;51.716;14.324;2023-05-10T12:09:06;2.22;;;1.50;;
27939;SDS011;15275;51.716;14.324;2023-05-10T12:11:35;3.10;;;1.58;;
27939;SDS011;15275;51.716;14.324;2023-05-10T12:14:04;4.25;;;1.90;;
27939;SDS011;15275;51.716;14.324;2023-05-10T12:16:30;4.88;;;2.13;;
27939;SDS011;15275;51.716;14.324;2023-05-10T12:18:57;3.72;;;1.67;;
27939;SDS011;15275;51.716;14.324;2023-05-10T12:21:25;2.53;;;1.70;;
27939;SDS011;15275;51.716;14.324;2023-05-10T12:23:54;5.10;;;1.85;;
27939;SDS011;15275;51.716;14.324;2023-05-10T12:26:27;3.13;;;2.07;;
27939;SDS011;15275;51.716;14.324;2023-05-10T12:28:54;4.47;;;2.92;;
27939;SDS011;15275;51.716;14.324;2023-05-10T12:36:59;3.05;;;2.08;;
27939;SDS011;15275;51.716;14.324;2023-05-10T12:39:25;4.57;;;2.42;;
27939;SDS011;15275;51.716;14.324;2023-05-10T12:41:52;4.00;;;2.63;;
27939;SDS011;15275;51.716;14.324;2023-05-10T12:44:18;4.03;;;2.35;;
27939;SDS011;15275;51.716;14.324;2023-05-10T12:46:44;6.55;;;2.85;;
27939;SDS011;15275;51.716;14.324;2023-05-10T12:49:09;2.60;;;1.95;;
27939;SDS011;15275;51.716;14.324;2023-05-10T12:51:35;5.65;;;2.20;;
27939;SDS011;15275;51.716;14.324;2023-05-10T12:54:02;2.03;;;1.58;;
27939;SDS011;15275;51.716;14.324;2023-05-10T12:56:28;2.60;;;1.60;;
27939;SDS011;15275;51.716;14.324;2023-05-10T12:58:54;4.03;;;1.60;;
27939;SDS011;15275;51.716;14.324;2023-05-10T13:01:20;2.42;;;1.48;;
27939;SDS011;15275;51.716;14.324;2023-05-10T13:03:46;7.20;;;1.85;;
27939;SDS011;15275;51.716;14.324;2023-05-10T13:06:12;3.92;;;1.77;;
27939;SDS011;15275;51.716;14.324;2023-05-10T13:08:38;5.40;;;1.60;;
27939;SDS011;15275;51.716;14.324;2023-05-10T13:11:05;1.77;;;1.67;;
27939;SDS011;15275;51.716;14.324;2023-05-10T13:13:31;4.00;;;1.95;;
27939;SDS011;15275;51.716;14.324;2023-05-10T13:15:57;2.92;;;2.17;;
27939;SDS011;15275;51.716;14.324;2023-05-10T13:18:22;5.68;;;1.67;;
27939;SDS011;15275;51.716;14.324;2023-05-10T13:20:49;4.65;;;1.85;;
27939;SDS011;15275;51.716;14.324;2023-05-10T13:23:15;2.55;;;1.75;;
27939;SDS011;15275;51.716;14.324;2023-05-10T13:25:41;1.67;;;1.52;;
27939;SDS011;15275;51.716;14.324;2023-05-10T13:28:06;5.40;;;2.00;;
27939;SDS011;15275;51.716;14.324;2023-05-10T13:30:32;2.75;;;1.67;;
27939;SDS011;15275;51.716;14.324;2023-05-10T13:32:58;2.53;;;1.80;;
27939;SDS011;15275;51.716;14.324;2023-05-10T13:35:24;2.13;;;1.80;;
27939;SDS011;15275;51.716;14.324;2023-05-10T13:37:50;2.88;;;1.85;;
27939;SDS011;15275;51.716;14.324;2023-05-10T13:40:15;2.72;;;1.73;;
27939;SDS011;15275;51.716;14.324;2023-05-10T13:42:41;3.30;;;1.90;;
27939;SDS011;15275;51.716;14.324;2023-05-10T13:45:07;3.92;;;1.40;;
27939;SDS011;15275;51.716;14.324;2023-05-10T13:47:34;2.60;;;1.80;;
27939;SDS011;15275;51.716;14.324;2023-05-10T13:50:00;2.22;;;1.70;;
27939;SDS011;15275;51.716;14.324;2023-05-10T13:52:26;2.58;;;1.85;;
27939;SDS011;15275;51.716;14.324;2023-05-10T13:54:52;2.15;;;1.48;;
27939;SDS011;15275;51.716;14.324;2023-05-10T13:57:20;4.63;;;1.90;;
27939;SDS011;15275;51.716;14.324;2023-05-10T13:59:46;1.92;;;1.52;;
27939;SDS011;15275;51.716;14.324;2023-05-10T14:02:13;2.97;;;2.10;;
27939;SDS011;15275;51.716;14.324;2023-05-10T14:04:38;2.20;;;1.73;;
27939;SDS011;15275;51.716;14.324;2023-05-10T14:07:04;2.85;;;1.88;;
27939;SDS011;15275;51.716;14.324;2023-05-10T14:09:30;3.15;;;2.08;;
27939;SDS011;15275;51.716;14.324;2023-05-10T14:11:56;2.70;;;1.85;;
27939;SDS011;15275;51.716;14.324;2023-05-10T14:14:22;2.05;;;1.63;;
27939;SDS011;15275;51.716;14.324;2023-05-10T14:16:48;2.10;;;1.80;;
27939;SDS011;15275;51.716;14.324;2023-05-10T14:19:14;3.83;;;1.90;;
27939;SDS011;15275;51.716;14.324;2023-05-10T14:21:40;2.42;;;1.83;;
27939;SDS011;15275;51.716;14.324;2023-05-10T14:24:06;3.13;;;1.80;;
27939;SDS011;15275;51.716;14.324;2023-05-10T14:26:32;3.60;;;1.65;;
27939;SDS011;15275;51.716;14.324;2023-05-10T14:28:59;2.28;;;1.90;;
27939;SDS011;15275;51.716;14.324;2023-05-10T14:31:25;1.95;;;1.55;;
27939;SDS011;15275;51.716;14.324;2023-05-10T14:33:51;2.17;;;1.65;;
27939;SDS011;15275;51.716;14.324;2023-05-10T14:36:17;3.55;;;1.75;;
27939;SDS011;15275;51.716;14.324;2023-05-10T14:38:43;2.70;;;1.65;;
27939;SDS011;15275;51.716;14.324;2023-05-10T14:41:09;1.85;;;1.67;;
27939;SDS011;15275;51.716;14.324;2023-05-10T14:43:39;1.65;;;1.50;;
27939;SDS011;15275;51.716;14.324;2023-05-10T14:46:04;4.82;;;1.70;;
27939;SDS011;15275;51.716;14.324;2023-05-10T14:48:30;4.28;;;1.60;;
27939;SDS011;15275;51.716;14.324;2023-05-10T14:50:56;5.57;;;1.58;;
27939;SDS011;15275;51.716;14.324;2023-05-10T14:53:22;4.60;;;1.85;;
27939;SDS011;15275;51.716;14.324;2023-05-10T14:55:48;2.60;;;1.55;;
27939;SDS011;15275;51.716;14.324;2023-05-10T14:58:13;3.63;;;1.92;;
27939;SDS011;15275;51.716;14.324;2023-05-10T15:00:40;2.08;;;1.40;;
27939;SDS011;15275;51.716;14.324;2023-05-10T15:03:06;2.00;;;1.80;;
27939;SDS011;15275;51.716;14.324;2023-05-10T15:05:32;3.85;;;1.95;;
27939;SDS011;15275;51.716;14.324;2023-05-10T15:07:57;2.78;;;1.70;;
27939;SDS011;15275;51.716;14.324;2023-05-10T15:10:23;2.63;;;1.73;;
27939;SDS011;15275;51.716;14.324;2023-05-10T15:12:50;3.15;;;2.42;;
27939;SDS011;15275;51.716;14.324;2023-05-10T15:15:16;3.78;;;2.10;;
27939;SDS011;15275;51.716;14.324;2023-05-10T15:17:41;2.22;;;1.70;;
27939;SDS011;15275;51.716;14.324;2023-05-10T15:20:07;14.07;;;2.15;;
27939;SDS011;15275;51.716;14.324;2023-05-10T15:22:33;2.17;;;1.42;;
27939;SDS011;15275;51.716;14.324;2023-05-10T15:24:59;3.03;;;1.73;;
27939;SDS011;15275;51.716;14.324;2023-05-10T15:27:25;2.40;;;1.60;;
27939;SDS011;15275;51.716;14.324;2023-05-10T15:29:52;1.85;;;1.63;;
27939;SDS011;15275;51.716;14.324;2023-05-10T15:32:18;3.28;;;1.88;;
27939;SDS011;15275;51.716;14.324;2023-05-10T15:34:44;4.25;;;2.20;;
27939;SDS011;15275;51.716;14.324;2023-05-10T15:37:10;2.53;;;2.08;;
27939;SDS011;15275;51.716;14.324;2023-05-10T15:39:35;2.33;;;1.70;;
27939;SDS011;15275;51.716;14.324;2023-05-10T15:42:01;1.80;;;1.70;;